sensor_id;sensor_type;location;lat;lon;timestamp;temperature;humidity
28863;DHT22;15994;51.796;13.006;2022-10-30T00:00:39;13.70;99.90
28863;DHT22;15994;51.796;13.006;2022-10-30T00:03:10;13.60;99.90
28863;DHT22;15994;51.796;13.006;2022-10-30T00:05:40;13.60;99.90
28863;DHT22;15994;51.796;13.006;2022-10-30T00:08:09;13.50;99.90
28863;DHT22;15994;51.796;13.006;2022-10-30T00:10:37;13.50;99.90
28863;DHT22;15994;51.796;13.006;2022-10-30T00:13:03;13.50;99.90
28863;DHT22;15994;51.796;13.006;2022-10-30T00:15:30;13.50;99.90
28863;DHT22;15994;51.796;13.006;2022-10-30T00:17:57;13.60;99.90
28863;DHT22;15994;51.796;13.006;2022-10-30T00:20:23;13.60;99.90
28863;DHT22;15994;51.796;13.006;2022-10-30T00:22:50;13.60;99.90
28863;DHT22;15994;51.796;13.006;2022-10-30T00:25:17;13.60;99.90
28863;DHT22;15994;51.796;13.006;2022-10-30T00:27:43;13.50;99.90
28863;DHT22;15994;51.796;13.006;2022-10-30T00:30:10;13.50;99.90
28863;DHT22;15994;51.796;13.006;2022-10-30T00:32:37;13.50;99.90
28863;DHT22;15994;51.796;13.006;2022-10-30T00:35:04;13.50;99.90
28863;DHT22;15994;51.796;13.006;2022-10-30T00:37:30;13.50;99.90
28863;DHT22;15994;51.796;13.006;2022-10-30T00:39:57;13.30;99.90
28863;DHT22;15994;51.796;13.006;2022-10-30T00:42:29;13.40;99.90
28863;DHT22;15994;51.796;13.006;2022-10-30T00:44:56;13.40;99.90
28863;DHT22;15994;51.796;13.006;2022-10-30T00:47:38;13.40;99.90
28863;DHT22;15994;51.796;13.006;2022-10-30T00:50:16;13.40;99.90
28863;DHT22;15994;51.796;13.006;2022-10-30T00:52:51;13.40;99.90
28863;DHT22;15994;51.796;13.006;2022-10-30T00:55:28;13.40;99.90
28863;DHT22;15994;51.796;13.006;2022-10-30T00:57:57;13.40;99.90
28863;DHT22;15994;51.796;13.006;2022-10-30T01:00:26;13.40;99.90
28863;DHT22;15994;51.796;13.006;2022-10-30T01:02:54;13.30;99.90
28863;DHT22;15994;51.796;13.006;2022-10-30T01:05:23;13.40;99.90
28863;DHT22;15994;51.796;13.006;2022-10-30T01:07:52;13.40;99.90
28863;DHT22;15994;51.796;13.006;2022-10-30T01:10:18;13.50;99.90
28863;DHT22;15994;51.796;13.006;2022-10-30T01:12:46;13.50;99.90
28863;DHT22;15994;51.796;13.006;2022-10-30T01:15:14;13.40;99.90
28863;DHT22;15994;51.796;13.006;2022-10-30T01:17:48;13.40;99.90
28863;DHT22;15994;51.796;13.006;2022-10-30T01:20:54;13.40;99.90
28863;DHT22;15994;51.796;13.006;2022-10-30T01:29:19;13.40;99.90
28863;DHT22;15994;51.796;13.006;2022-10-30T01:32:11;13.50;99.90
28863;DHT22;15994;51.796;13.006;2022-10-30T01:34:54;13.50;99.90
28863;DHT22;15994;51.796;13.006;2022-10-30T01:37:37;13.40;99.90
28863;DHT22;15994;51.796;13.006;2022-10-30T01:40:10;13.40;99.90
28863;DHT22;15994;51.796;13.006;2022-10-30T01:55:56;13.50;99.90
28863;DHT22;15994;51.796;13.006;2022-10-30T01:58:33;13.50;99.90
28863;DHT22;15994;51.796;13.006;2022-10-30T02:01:03;13.50;99.90
28863;DHT22;15994;51.796;13.006;2022-10-30T02:03:30;13.50;99.90
28863;DHT22;15994;51.796;13.006;2022-10-30T02:05:56;13.60;99.90
28863;DHT22;15994;51.796;13.006;2022-10-30T02:08:23;13.50;99.90
28863;DHT22;15994;51.796;13.006;2022-10-30T02:10:51;13.50;99.90
28863;DHT22;15994;51.796;13.006;2022-10-30T02:13:19;13.50;99.90
28863;DHT22;15994;51.796;13.006;2022-10-30T02:15:46;13.50;99.90
28863;DHT22;15994;51.796;13.006;2022-10-30T02:18:14;13.50;99.90
28863;DHT22;15994;51.796;13.006;2022-10-30T02:20:41;13.50;99.90
28863;DHT22;15994;51.796;13.006;2022-10-30T02:23:07;13.50;99.90
28863;DHT22;15994;51.796;13.006;2022-10-30T02:25:37;13.50;99.90
28863;DHT22;15994;51.796;13.006;2022-10-30T02:28:04;13.50;99.90
28863;DHT22;15994;51.796;13.006;2022-10-30T02:30:30;13.50;99.90
28863;DHT22;15994;51.796;13.006;2022-10-30T02:32:57;13.60;99.90
28863;DHT22;15994;51.796;13.006;2022-10-30T02:35:24;13.60;99.90
28863;DHT22;15994;51.796;13.006;2022-10-30T02:37:50;13.60;99.90
28863;DHT22;15994;51.796;13.006;2022-10-30T02:40:17;13.60;99.90
28863;DHT22;15994;51.796;13.006;2022-10-30T02:42:43;13.60;99.90
28863;DHT22;15994;51.796;13.006;2022-10-30T02:45:10;13.60;99.90
28863;DHT22;15994;51.796;13.006;2022-10-30T02:47:37;13.50;99.90
28863;DHT22;15994;51.796;13.006;2022-10-30T02:50:03;13.50;99.90
28863;DHT22;15994;51.796;13.006;2022-10-30T02:52:31;13.50;99.90
28863;DHT22;15994;51.796;13.006;2022-10-30T02:54:57;13.50;99.90
28863;DHT22;15994;51.796;13.006;2022-10-30T02:57:24;13.50;99.90
28863;DHT22;15994;51.796;13.006;2022-10-30T02:59:50;13.50;99.90
28863;DHT22;15994;51.796;13.006;2022-10-30T03:02:17;13.50;99.90
28863;DHT22;15994;51.796;13.006;2022-10-30T03:04:44;13.50;99.90
28863;DHT22;15994;51.796;13.006;2022-10-30T03:07:10;13.50;99.90
28863;DHT22;15994;51.796;13.006;2022-10-30T03:09:37;13.50;99.90
28863;DHT22;15994;51.796;13.006;2022-10-30T03:12:04;13.40;99.90
28863;DHT22;15994;51.796;13.006;2022-10-30T03:14:30;13.50;99.90
28863;DHT22;15994;51.796;13.006;2022-10-30T03:16:57;13.40;99.90
28863;DHT22;15994;51.796;13.006;2022-10-30T03:19:23;13.30;99.90
28863;DHT22;15994;51.796;13.006;2022-10-30T03:21:52;13.40;99.90
28863;DHT22;15994;51.796;13.006;2022-10-30T03:24:19;13.50;99.90
28863;DHT22;15994;51.796;13.006;2022-10-30T03:26:46;13.50;99.90
28863;DHT22;15994;51.796;13.006;2022-10-30T03:29:13;13.50;99.90
28863;DHT22;15994;51.796;13.006;2022-10-30T03:31:39;13.40;99.90
28863;DHT22;15994;51.796;13.006;2022-10-30T03:34:06;13.40;99.90
28863;DHT22;15994;51.796;13.006;2022-10-30T03:36:32;13.40;99.90
28863;DHT22;15994;51.796;13.006;2022-10-30T03:38:59;13.30;99.90
28863;DHT22;15994;51.796;13.006;2022-10-30T03:41:26;13.30;99.90
28863;DHT22;15994;51.796;13.006;2022-10-30T03:43:52;13.30;99.90
28863;DHT22;15994;51.796;13.006;2022-10-30T03:46:19;13.20;99.90
28863;DHT22;15994;51.796;13.006;2022-10-30T03:48:48;13.20;99.90
28863;DHT22;15994;51.796;13.006;2022-10-30T03:51:15;13.20;99.90
28863;DHT22;15994;51.796;13.006;2022-10-30T03:53:42;13.10;99.90
28863;DHT22;15994;51.796;13.006;2022-10-30T03:56:08;13.20;99.90
28863;DHT22;15994;51.796;13.006;2022-10-30T03:58:35;13.20;99.90
28863;DHT22;15994;51.796;13.006;2022-10-30T04:01:06;13.20;99.90
28863;DHT22;15994;51.796;13.006;2022-10-30T04:03:33;13.20;99.90
28863;DHT22;15994;51.796;13.006;2022-10-30T04:05:59;13.20;99.90
28863;DHT22;15994;51.796;13.006;2022-10-30T04:08:26;13.20;99.90
28863;DHT22;15994;51.796;13.006;2022-10-30T04:10:53;13.20;99.90
28863;DHT22;15994;51.796;13.006;2022-10-30T04:13:19;13.20;99.90
28863;DHT22;15994;51.796;13.006;2022-10-30T04:15:47;13.20;99.90
28863;DHT22;15994;51.796;13.006;2022-10-30T04:18:15;13.20;99.90
28863;DHT22;15994;51.796;13.006;2022-10-30T04:20:42;13.10;99.90
28863;DHT22;15994;51.796;13.006;2022-10-30T04:23:13;13.10;99.90
28863;DHT22;15994;51.796;13.006;2022-10-30T04:25:40;13.10;99.90
28863;DHT22;15994;51.796;13.006;2022-10-30T04:28:07;13.10;99.90
28863;DHT22;15994;51.796;13.006;2022-10-30T04:30:34;13.10;99.90
28863;DHT22;15994;51.796;13.006;2022-10-30T04:33:03;13.10;99.90
28863;DHT22;15994;51.796;13.006;2022-10-30T04:35:33;13.00;99.90
28863;DHT22;15994;51.796;13.006;2022-10-30T04:38:12;13.00;99.90
28863;DHT22;15994;51.796;13.006;2022-10-30T04:40:41;13.00;99.90
28863;DHT22;15994;51.796;13.006;2022-10-30T04:43:09;12.90;99.90
28863;DHT22;15994;51.796;13.006;2022-10-30T04:45:36;12.90;99.90
28863;DHT22;15994;51.796;13.006;2022-10-30T04:48:09;12.80;99.90
28863;DHT22;15994;51.796;13.006;2022-10-30T04:50:36;12.80;99.90
28863;DHT22;15994;51.796;13.006;2022-10-30T04:53:11;12.80;99.90
28863;DHT22;15994;51.796;13.006;2022-10-30T04:55:38;12.70;99.90
28863;DHT22;15994;51.796;13.006;2022-10-30T04:58:04;12.70;99.90
28863;DHT22;15994;51.796;13.006;2022-10-30T05:00:32;12.70;99.90
28863;DHT22;15994;51.796;13.006;2022-10-30T05:03:02;12.70;99.90
28863;DHT22;15994;51.796;13.006;2022-10-30T05:05:30;12.60;99.90
28863;DHT22;15994;51.796;13.006;2022-10-30T05:07:57;12.60;99.90
28863;DHT22;15994;51.796;13.006;2022-10-30T05:10:23;12.50;99.90
28863;DHT22;15994;51.796;13.006;2022-10-30T05:12:51;12.40;99.90
28863;DHT22;15994;51.796;13.006;2022-10-30T05:15:18;12.40;99.90
28863;DHT22;15994;51.796;13.006;2022-10-30T05:17:45;12.40;99.90
28863;DHT22;15994;51.796;13.006;2022-10-30T05:20:11;12.40;99.90
28863;DHT22;15994;51.796;13.006;2022-10-30T05:22:38;12.30;99.90
28863;DHT22;15994;51.796;13.006;2022-10-30T05:25:05;12.30;99.90
28863;DHT22;15994;51.796;13.006;2022-10-30T05:27:31;12.30;99.90
28863;DHT22;15994;51.796;13.006;2022-10-30T05:29:58;12.30;99.90
28863;DHT22;15994;51.796;13.006;2022-10-30T05:32:25;12.30;99.90
28863;DHT22;15994;51.796;13.006;2022-10-30T05:34:51;12.30;99.90
28863;DHT22;15994;51.796;13.006;2022-10-30T05:37:18;12.30;99.90
28863;DHT22;15994;51.796;13.006;2022-10-30T05:39:44;12.30;99.90
28863;DHT22;15994;51.796;13.006;2022-10-30T05:42:11;12.30;99.90
28863;DHT22;15994;51.796;13.006;2022-10-30T05:44:37;12.30;99.90
28863;DHT22;15994;51.796;13.006;2022-10-30T05:47:04;12.30;99.90
28863;DHT22;15994;51.796;13.006;2022-10-30T05:49:31;12.40;99.90
28863;DHT22;15994;51.796;13.006;2022-10-30T05:51:57;12.30;99.90
28863;DHT22;15994;51.796;13.006;2022-10-30T05:54:24;12.40;99.90
28863;DHT22;15994;51.796;13.006;2022-10-30T05:56:50;12.40;99.90
28863;DHT22;15994;51.796;13.006;2022-10-30T05:59:17;12.40;99.90
28863;DHT22;15994;51.796;13.006;2022-10-30T06:01:44;12.40;99.90
28863;DHT22;15994;51.796;13.006;2022-10-30T06:04:10;12.30;99.90
28863;DHT22;15994;51.796;13.006;2022-10-30T06:06:37;12.30;99.90
28863;DHT22;15994;51.796;13.006;2022-10-30T06:09:03;12.40;99.90
28863;DHT22;15994;51.796;13.006;2022-10-30T06:11:30;12.40;99.90
28863;DHT22;15994;51.796;13.006;2022-10-30T06:13:56;12.40;99.90
28863;DHT22;15994;51.796;13.006;2022-10-30T06:16:23;12.50;99.90
28863;DHT22;15994;51.796;13.006;2022-10-30T06:18:49;12.50;99.90
28863;DHT22;15994;51.796;13.006;2022-10-30T06:21:16;12.60;99.90
28863;DHT22;15994;51.796;13.006;2022-10-30T06:23:43;12.60;99.90
28863;DHT22;15994;51.796;13.006;2022-10-30T06:26:09;12.70;99.90
28863;DHT22;15994;51.796;13.006;2022-10-30T06:28:36;12.70;99.90
28863;DHT22;15994;51.796;13.006;2022-10-30T06:31:02;12.70;99.90
28863;DHT22;15994;51.796;13.006;2022-10-30T06:33:29;12.70;99.90
28863;DHT22;15994;51.796;13.006;2022-10-30T06:35:55;12.80;99.90
28863;DHT22;15994;51.796;13.006;2022-10-30T06:38:22;12.80;99.90
28863;DHT22;15994;51.796;13.006;2022-10-30T06:40:49;12.80;99.90
28863;DHT22;15994;51.796;13.006;2022-10-30T06:43:15;12.70;99.90
28863;DHT22;15994;51.796;13.006;2022-10-30T06:45:42;12.70;99.90
28863;DHT22;15994;51.796;13.006;2022-10-30T06:48:08;12.70;99.90
28863;DHT22;15994;51.796;13.006;2022-10-30T06:50:35;12.70;99.90
28863;DHT22;15994;51.796;13.006;2022-10-30T06:53:01;12.70;99.90
28863;DHT22;15994;51.796;13.006;2022-10-30T06:55:28;12.70;99.90
28863;DHT22;15994;51.796;13.006;2022-10-30T06:57:55;12.80;99.90
28863;DHT22;15994;51.796;13.006;2022-10-30T07:00:22;12.80;99.90
28863;DHT22;15994;51.796;13.006;2022-10-30T07:02:59;12.90;99.90
28863;DHT22;15994;51.796;13.006;2022-10-30T07:05:26;13.00;99.90
28863;DHT22;15994;51.796;13.006;2022-10-30T07:07:55;13.10;99.90
28863;DHT22;15994;51.796;13.006;2022-10-30T07:10:22;13.20;99.90
28863;DHT22;15994;51.796;13.006;2022-10-30T07:12:53;13.30;99.90
28863;DHT22;15994;51.796;13.006;2022-10-30T07:15:20;13.50;99.90
28863;DHT22;15994;51.796;13.006;2022-10-30T07:18:01;13.60;99.90
28863;DHT22;15994;51.796;13.006;2022-10-30T07:20:30;13.70;99.90
28863;DHT22;15994;51.796;13.006;2022-10-30T07:22:57;13.80;99.90
28863;DHT22;15994;51.796;13.006;2022-10-30T07:25:23;14.00;99.90
28863;DHT22;15994;51.796;13.006;2022-10-30T07:27:52;14.10;99.90
28863;DHT22;15994;51.796;13.006;2022-10-30T07:30:24;14.20;99.90
28863;DHT22;15994;51.796;13.006;2022-10-30T07:33:02;14.30;99.90
28863;DHT22;15994;51.796;13.006;2022-10-30T07:35:30;14.30;99.90
28863;DHT22;15994;51.796;13.006;2022-10-30T07:38:04;14.40;99.90
28863;DHT22;15994;51.796;13.006;2022-10-30T07:40:32;14.50;99.90
28863;DHT22;15994;51.796;13.006;2022-10-30T07:42:59;14.60;99.90
28863;DHT22;15994;51.796;13.006;2022-10-30T07:45:26;14.60;99.90
28863;DHT22;15994;51.796;13.006;2022-10-30T07:47:53;14.60;99.90
28863;DHT22;15994;51.796;13.006;2022-10-30T07:50:20;14.60;99.90
28863;DHT22;15994;51.796;13.006;2022-10-30T07:52:46;14.60;99.90
28863;DHT22;15994;51.796;13.006;2022-10-30T07:55:13;14.60;99.90
28863;DHT22;15994;51.796;13.006;2022-10-30T07:57:41;14.50;99.90
28863;DHT22;15994;51.796;13.006;2022-10-30T08:00:10;14.50;99.90
28863;DHT22;15994;51.796;13.006;2022-10-30T08:02:37;14.40;99.90
28863;DHT22;15994;51.796;13.006;2022-10-30T08:05:05;14.40;99.90
28863;DHT22;15994;51.796;13.006;2022-10-30T08:07:33;14.30;99.90
28863;DHT22;15994;51.796;13.006;2022-10-30T08:10:00;14.30;99.90
28863;DHT22;15994;51.796;13.006;2022-10-30T08:12:27;14.30;99.90
28863;DHT22;15994;51.796;13.006;2022-10-30T08:14:54;14.20;99.90
28863;DHT22;15994;51.796;13.006;2022-10-30T08:17:20;14.30;99.90
28863;DHT22;15994;51.796;13.006;2022-10-30T08:19:47;14.30;99.90
28863;DHT22;15994;51.796;13.006;2022-10-30T08:22:14;14.30;99.90
28863;DHT22;15994;51.796;13.006;2022-10-30T08:24:41;14.40;99.90
28863;DHT22;15994;51.796;13.006;2022-10-30T08:27:08;14.40;99.90
28863;DHT22;15994;51.796;13.006;2022-10-30T08:29:35;14.50;99.90
28863;DHT22;15994;51.796;13.006;2022-10-30T08:32:02;14.60;99.90
28863;DHT22;15994;51.796;13.006;2022-10-30T08:34:29;14.70;99.90
28863;DHT22;15994;51.796;13.006;2022-10-30T08:36:58;14.90;99.90
28863;DHT22;15994;51.796;13.006;2022-10-30T08:39:25;15.00;99.90
28863;DHT22;15994;51.796;13.006;2022-10-30T08:41:52;15.10;99.90
28863;DHT22;15994;51.796;13.006;2022-10-30T08:44:18;15.10;99.90
28863;DHT22;15994;51.796;13.006;2022-10-30T08:46:45;15.30;99.90
28863;DHT22;15994;51.796;13.006;2022-10-30T08:49:11;15.30;99.90
28863;DHT22;15994;51.796;13.006;2022-10-30T08:51:38;15.40;99.90
28863;DHT22;15994;51.796;13.006;2022-10-30T08:54:05;15.50;99.90
28863;DHT22;15994;51.796;13.006;2022-10-30T08:56:31;15.50;99.90
28863;DHT22;15994;51.796;13.006;2022-10-30T08:58:58;15.60;99.90
28863;DHT22;15994;51.796;13.006;2022-10-30T09:01:24;15.60;99.90
28863;DHT22;15994;51.796;13.006;2022-10-30T09:03:51;15.70;99.90
28863;DHT22;15994;51.796;13.006;2022-10-30T09:06:17;15.80;99.90
28863;DHT22;15994;51.796;13.006;2022-10-30T09:08:45;15.90;99.90
28863;DHT22;15994;51.796;13.006;2022-10-30T09:11:12;16.00;99.90
28863;DHT22;15994;51.796;13.006;2022-10-30T09:13:38;16.10;99.90
28863;DHT22;15994;51.796;13.006;2022-10-30T09:16:05;16.10;99.90
28863;DHT22;15994;51.796;13.006;2022-10-30T09:18:32;16.20;99.90
28863;DHT22;15994;51.796;13.006;2022-10-30T09:20:58;16.30;99.90
28863;DHT22;15994;51.796;13.006;2022-10-30T09:23:25;16.40;99.90
28863;DHT22;15994;51.796;13.006;2022-10-30T09:25:51;16.50;99.90
28863;DHT22;15994;51.796;13.006;2022-10-30T09:28:18;16.70;99.90
28863;DHT22;15994;51.796;13.006;2022-10-30T09:30:44;16.70;99.90
28863;DHT22;15994;51.796;13.006;2022-10-30T09:33:14;16.80;99.90
28863;DHT22;15994;51.796;13.006;2022-10-30T09:35:40;16.90;99.90
28863;DHT22;15994;51.796;13.006;2022-10-30T09:38:07;16.90;99.90
28863;DHT22;15994;51.796;13.006;2022-10-30T09:43:27;17.20;99.90
28863;DHT22;15994;51.796;13.006;2022-10-30T09:46:04;17.40;99.90
28863;DHT22;15994;51.796;13.006;2022-10-30T09:49:03;17.40;99.90
28863;DHT22;15994;51.796;13.006;2022-10-30T09:52:05;17.50;99.90
28863;DHT22;15994;51.796;13.006;2022-10-30T09:55:12;17.50;99.90
28863;DHT22;15994;51.796;13.006;2022-10-30T09:58:01;17.60;99.90
28863;DHT22;15994;51.796;13.006;2022-10-30T10:00:37;17.60;99.90
28863;DHT22;15994;51.796;13.006;2022-10-30T10:03:39;17.70;99.90
28863;DHT22;15994;51.796;13.006;2022-10-30T10:06:16;17.70;99.90
28863;DHT22;15994;51.796;13.006;2022-10-30T10:08:47;17.90;99.90
28863;DHT22;15994;51.796;13.006;2022-10-30T10:11:27;17.90;99.90
28863;DHT22;15994;51.796;13.006;2022-10-30T10:16:32;18.10;99.90
28863;DHT22;15994;51.796;13.006;2022-10-30T10:19:37;18.20;99.90
28863;DHT22;15994;51.796;13.006;2022-10-30T10:24:45;18.50;99.90
28863;DHT22;15994;51.796;13.006;2022-10-30T10:27:30;18.50;99.90
28863;DHT22;15994;51.796;13.006;2022-10-30T10:30:08;18.50;99.90
28863;DHT22;15994;51.796;13.006;2022-10-30T10:33:37;18.60;99.90
28863;DHT22;15994;51.796;13.006;2022-10-30T10:36:06;18.70;99.90
28863;DHT22;15994;51.796;13.006;2022-10-30T10:44:30;18.90;99.90
28863;DHT22;15994;51.796;13.006;2022-10-30T10:53:00;19.10;99.90
28863;DHT22;15994;51.796;13.006;2022-10-30T10:55:34;19.20;99.90
28863;DHT22;15994;51.796;13.006;2022-10-30T10:58:24;19.30;99.90
28863;DHT22;15994;51.796;13.006;2022-10-30T11:00:55;19.20;99.90
28863;DHT22;15994;51.796;13.006;2022-10-30T11:06:42;19.30;99.90
28863;DHT22;15994;51.796;13.006;2022-10-30T11:09:20;19.40;99.90
28863;DHT22;15994;51.796;13.006;2022-10-30T11:11:48;19.40;99.90
28863;DHT22;15994;51.796;13.006;2022-10-30T11:14:21;19.50;99.90
28863;DHT22;15994;51.796;13.006;2022-10-30T11:19:39;19.70;99.90
28863;DHT22;15994;51.796;13.006;2022-10-30T11:22:20;19.70;99.90
28863;DHT22;15994;51.796;13.006;2022-10-30T11:24:48;19.80;99.90
28863;DHT22;15994;51.796;13.006;2022-10-30T11:27:32;19.80;99.90
28863;DHT22;15994;51.796;13.006;2022-10-30T11:30:02;19.90;99.90
28863;DHT22;15994;51.796;13.006;2022-10-30T11:32:31;20.00;99.90
28863;DHT22;15994;51.796;13.006;2022-10-30T11:37:30;20.10;99.90
28863;DHT22;15994;51.796;13.006;2022-10-30T11:42:31;20.20;99.90
28863;DHT22;15994;51.796;13.006;2022-10-30T11:44:58;20.30;99.90
28863;DHT22;15994;51.796;13.006;2022-10-30T11:47:35;20.30;99.90
28863;DHT22;15994;51.796;13.006;2022-10-30T11:50:22;20.20;99.90
28863;DHT22;15994;51.796;13.006;2022-10-30T11:52:57;20.20;99.90
28863;DHT22;15994;51.796;13.006;2022-10-30T11:55:40;20.30;99.90
28863;DHT22;15994;51.796;13.006;2022-10-30T11:58:32;20.30;99.90
28863;DHT22;15994;51.796;13.006;2022-10-30T12:01:04;20.30;99.90
28863;DHT22;15994;51.796;13.006;2022-10-30T12:03:36;20.30;99.90
28863;DHT22;15994;51.796;13.006;2022-10-30T12:06:18;20.40;99.90
28863;DHT22;15994;51.796;13.006;2022-10-30T12:11:38;20.50;99.90
28863;DHT22;15994;51.796;13.006;2022-10-30T12:14:23;20.60;99.90
28863;DHT22;15994;51.796;13.006;2022-10-30T12:16:54;20.60;99.90
28863;DHT22;15994;51.796;13.006;2022-10-30T12:19:23;20.60;99.90
28863;DHT22;15994;51.796;13.006;2022-10-30T12:21:52;20.70;99.90
28863;DHT22;15994;51.796;13.006;2022-10-30T12:24:33;20.60;99.90
28863;DHT22;15994;51.796;13.006;2022-10-30T12:27:03;20.60;99.90
28863;DHT22;15994;51.796;13.006;2022-10-30T12:29:57;20.70;99.90
28863;DHT22;15994;51.796;13.006;2022-10-30T12:32:31;20.70;99.90
28863;DHT22;15994;51.796;13.006;2022-10-30T12:35:03;20.80;99.90
28863;DHT22;15994;51.796;13.006;2022-10-30T12:37:38;20.80;99.90
28863;DHT22;15994;51.796;13.006;2022-10-30T12:40:23;20.80;99.90
28863;DHT22;15994;51.796;13.006;2022-10-30T12:45:42;20.80;99.90
28863;DHT22;15994;51.796;13.006;2022-10-30T12:48:21;20.70;99.90
28863;DHT22;15994;51.796;13.006;2022-10-30T12:56:34;20.70;99.90
28863;DHT22;15994;51.796;13.006;2022-10-30T13:02:17;20.80;99.90
28863;DHT22;15994;51.796;13.006;2022-10-30T13:04:50;20.70;99.90
28863;DHT22;15994;51.796;13.006;2022-10-30T13:10:48;20.70;99.90
28863;DHT22;15994;51.796;13.006;2022-10-30T13:13:23;20.70;99.90
28863;DHT22;15994;51.796;13.006;2022-10-30T13:15:56;20.80;99.90
28863;DHT22;15994;51.796;13.006;2022-10-30T13:18:25;20.80;99.90
28863;DHT22;15994;51.796;13.006;2022-10-30T13:24:01;20.70;99.90
28863;DHT22;15994;51.796;13.006;2022-10-30T13:26:37;20.60;99.90
28863;DHT22;15994;51.796;13.006;2022-10-30T13:29:27;20.60;99.90
28863;DHT22;15994;51.796;13.006;2022-10-30T13:34:50;20.60;99.90
28863;DHT22;15994;51.796;13.006;2022-10-30T13:37:42;20.60;99.90
28863;DHT22;15994;51.796;13.006;2022-10-30T13:51:32;20.50;99.90
28863;DHT22;15994;51.796;13.006;2022-10-30T13:54:08;20.50;99.90
28863;DHT22;15994;51.796;13.006;2022-10-30T13:56:35;20.40;99.90
28863;DHT22;15994;51.796;13.006;2022-10-30T14:01:46;20.40;99.90
28863;DHT22;15994;51.796;13.006;2022-10-30T14:15:40;20.20;99.90
28863;DHT22;15994;51.796;13.006;2022-10-30T14:20:44;20.20;99.90
28863;DHT22;15994;51.796;13.006;2022-10-30T14:23:19;20.20;99.90
28863;DHT22;15994;51.796;13.006;2022-10-30T14:26:18;20.10;99.90
28863;DHT22;15994;51.796;13.006;2022-10-30T14:28:54;20.00;99.90
28863;DHT22;15994;51.796;13.006;2022-10-30T14:31:33;20.00;99.90
28863;DHT22;15994;51.796;13.006;2022-10-30T14:34:00;19.90;99.90
28863;DHT22;15994;51.796;13.006;2022-10-30T14:42:04;19.80;99.90
28863;DHT22;15994;51.796;13.006;2022-10-30T14:44:45;19.70;99.90
28863;DHT22;15994;51.796;13.006;2022-10-30T14:50:26;19.60;99.90
28863;DHT22;15994;51.796;13.006;2022-10-30T14:56:06;19.50;99.90
28863;DHT22;15994;51.796;13.006;2022-10-30T14:58:36;19.40;99.90
28863;DHT22;15994;51.796;13.006;2022-10-30T15:06:29;19.20;99.90
28863;DHT22;15994;51.796;13.006;2022-10-30T15:15:00;18.90;99.90
28863;DHT22;15994;51.796;13.006;2022-10-30T15:17:32;18.80;99.90
28863;DHT22;15994;51.796;13.006;2022-10-30T15:20:01;18.70;99.90
28863;DHT22;15994;51.796;13.006;2022-10-30T15:22:31;18.60;99.90
28863;DHT22;15994;51.796;13.006;2022-10-30T15:24:58;18.50;99.90
28863;DHT22;15994;51.796;13.006;2022-10-30T15:27:26;18.40;99.90
28863;DHT22;15994;51.796;13.006;2022-10-30T15:29:55;18.30;99.90
28863;DHT22;15994;51.796;13.006;2022-10-30T15:32:24;18.10;99.90
28863;DHT22;15994;51.796;13.006;2022-10-30T15:35:02;18.10;99.90
28863;DHT22;15994;51.796;13.006;2022-10-30T15:37:30;18.00;99.90
28863;DHT22;15994;51.796;13.006;2022-10-30T15:40:19;17.90;99.90
28863;DHT22;15994;51.796;13.006;2022-10-30T15:42:47;17.70;99.90
28863;DHT22;15994;51.796;13.006;2022-10-30T15:45:20;17.50;99.90
28863;DHT22;15994;51.796;13.006;2022-10-30T15:47:56;17.40;99.90
28863;DHT22;15994;51.796;13.006;2022-10-30T15:50:23;17.40;99.90
28863;DHT22;15994;51.796;13.006;2022-10-30T15:52:50;17.20;99.90
28863;DHT22;15994;51.796;13.006;2022-10-30T15:55:21;17.10;99.90
28863;DHT22;15994;51.796;13.006;2022-10-30T15:57:51;17.00;99.90
28863;DHT22;15994;51.796;13.006;2022-10-30T16:00:24;16.90;99.90
28863;DHT22;15994;51.796;13.006;2022-10-30T16:05:34;16.70;99.90
28863;DHT22;15994;51.796;13.006;2022-10-30T16:08:01;16.70;99.90
28863;DHT22;15994;51.796;13.006;2022-10-30T16:10:33;16.60;99.90
28863;DHT22;15994;51.796;13.006;2022-10-30T16:13:00;16.40;99.90
28863;DHT22;15994;51.796;13.006;2022-10-30T16:15:32;16.30;99.90
28863;DHT22;15994;51.796;13.006;2022-10-30T16:20:33;16.10;99.90
28863;DHT22;15994;51.796;13.006;2022-10-30T16:23:02;16.20;99.90
28863;DHT22;15994;51.796;13.006;2022-10-30T16:25:30;16.10;99.90
28863;DHT22;15994;51.796;13.006;2022-10-30T16:27:58;16.10;99.90
28863;DHT22;15994;51.796;13.006;2022-10-30T16:30:25;16.10;99.90
28863;DHT22;15994;51.796;13.006;2022-10-30T16:32:53;16.00;99.90
28863;DHT22;15994;51.796;13.006;2022-10-30T16:35:24;16.00;99.90
28863;DHT22;15994;51.796;13.006;2022-10-30T16:37:52;16.00;99.90
28863;DHT22;15994;51.796;13.006;2022-10-30T16:40:25;16.00;99.90
28863;DHT22;15994;51.796;13.006;2022-10-30T16:43:00;16.00;99.90
28863;DHT22;15994;51.796;13.006;2022-10-30T16:47:59;15.90;99.90
28863;DHT22;15994;51.796;13.006;2022-10-30T16:50:34;15.80;99.90
28863;DHT22;15994;51.796;13.006;2022-10-30T16:53:17;15.70;99.90
28863;DHT22;15994;51.796;13.006;2022-10-30T16:55:45;15.70;99.90
28863;DHT22;15994;51.796;13.006;2022-10-30T16:58:12;15.70;99.90
28863;DHT22;15994;51.796;13.006;2022-10-30T17:00:41;15.60;99.90
28863;DHT22;15994;51.796;13.006;2022-10-30T17:03:13;15.60;99.90
28863;DHT22;15994;51.796;13.006;2022-10-30T17:05:40;15.60;99.90
28863;DHT22;15994;51.796;13.006;2022-10-30T17:10:55;15.40;99.90
28863;DHT22;15994;51.796;13.006;2022-10-30T17:18:41;15.40;99.90
28863;DHT22;15994;51.796;13.006;2022-10-30T17:21:09;15.40;99.90
28863;DHT22;15994;51.796;13.006;2022-10-30T17:23:42;15.40;99.90
28863;DHT22;15994;51.796;13.006;2022-10-30T17:26:10;15.40;99.90
28863;DHT22;15994;51.796;13.006;2022-10-30T17:28:38;15.30;99.90
28863;DHT22;15994;51.796;13.006;2022-10-30T17:34:14;15.30;99.90
28863;DHT22;15994;51.796;13.006;2022-10-30T17:36:41;15.30;99.90
28863;DHT22;15994;51.796;13.006;2022-10-30T17:39:08;15.30;99.90
28863;DHT22;15994;51.796;13.006;2022-10-30T17:41:35;15.20;99.90
28863;DHT22;15994;51.796;13.006;2022-10-30T17:44:02;15.20;99.90
28863;DHT22;15994;51.796;13.006;2022-10-30T17:46:29;15.10;99.90
28863;DHT22;15994;51.796;13.006;2022-10-30T17:48:57;15.10;99.90
28863;DHT22;15994;51.796;13.006;2022-10-30T17:51:24;15.10;99.90
28863;DHT22;15994;51.796;13.006;2022-10-30T17:53:51;15.10;99.90
28863;DHT22;15994;51.796;13.006;2022-10-30T17:56:21;15.10;99.90
28863;DHT22;15994;51.796;13.006;2022-10-30T17:58:48;15.10;99.90